sensor_id;sensor_type;location;lat;lon;timestamp;temperature;humidity
23562;DHT22;11959;49.418;8.728;2023-07-24T00:02:03;19.80;99.90
23562;DHT22;11959;49.418;8.728;2023-07-24T00:04:33;19.70;99.90
23562;DHT22;11959;49.418;8.728;2023-07-24T00:07:02;19.70;99.90
23562;DHT22;11959;49.418;8.728;2023-07-24T00:09:27;19.70;99.90
23562;DHT22;11959;49.418;8.728;2023-07-24T00:11:53;19.70;99.90
23562;DHT22;11959;49.418;8.728;2023-07-24T00:14:18;19.60;99.90
23562;DHT22;11959;49.418;8.728;2023-07-24T00:16:44;19.60;99.90
23562;DHT22;11959;49.418;8.728;2023-07-24T00:19:10;19.50;99.90
23562;DHT22;11959;49.418;8.728;2023-07-24T00:21:35;19.50;99.90
23562;DHT22;11959;49.418;8.728;2023-07-24T00:24:01;19.50;99.90
23562;DHT22;11959;49.418;8.728;2023-07-24T00:26:26;19.40;99.90
23562;DHT22;11959;49.418;8.728;2023-07-24T00:28:52;19.40;99.90
23562;DHT22;11959;49.418;8.728;2023-07-24T00:31:18;19.40;99.90
23562;DHT22;11959;49.418;8.728;2023-07-24T00:33:43;19.30;99.90
23562;DHT22;11959;49.418;8.728;2023-07-24T00:36:09;19.30;99.90
23562;DHT22;11959;49.418;8.728;2023-07-24T00:38:35;19.30;99.90
23562;DHT22;11959;49.418;8.728;2023-07-24T00:41:00;19.20;99.90
23562;DHT22;11959;49.418;8.728;2023-07-24T00:43:26;19.30;99.90
23562;DHT22;11959;49.418;8.728;2023-07-24T00:45:51;19.30;99.90
23562;DHT22;11959;49.418;8.728;2023-07-24T00:48:19;19.30;99.90
23562;DHT22;11959;49.418;8.728;2023-07-24T00:50:45;19.30;99.90
23562;DHT22;11959;49.418;8.728;2023-07-24T00:53:12;19.30;99.90
23562;DHT22;11959;49.418;8.728;2023-07-24T00:55:38;19.20;99.90
23562;DHT22;11959;49.418;8.728;2023-07-24T00:58:04;19.20;99.90
23562;DHT22;11959;49.418;8.728;2023-07-24T01:00:30;19.20;99.90
23562;DHT22;11959;49.418;8.728;2023-07-24T01:02:56;19.10;99.90
23562;DHT22;11959;49.418;8.728;2023-07-24T01:05:25;19.10;99.90
23562;DHT22;11959;49.418;8.728;2023-07-24T01:07:54;19.10;99.90
23562;DHT22;11959;49.418;8.728;2023-07-24T01:10:20;19.10;99.90
23562;DHT22;11959;49.418;8.728;2023-07-24T01:13:01;19.10;99.90
23562;DHT22;11959;49.418;8.728;2023-07-24T01:15:31;19.00;99.90
23562;DHT22;11959;49.418;8.728;2023-07-24T01:18:06;19.00;99.90
23562;DHT22;11959;49.418;8.728;2023-07-24T01:20:34;18.90;99.90
23562;DHT22;11959;49.418;8.728;2023-07-24T01:25:57;18.90;99.90
23562;DHT22;11959;49.418;8.728;2023-07-24T01:28:28;18.80;99.90
23562;DHT22;11959;49.418;8.728;2023-07-24T01:30:54;18.80;99.90
23562;DHT22;11959;49.418;8.728;2023-07-24T01:33:20;18.80;99.90
23562;DHT22;11959;49.418;8.728;2023-07-24T01:35:49;18.80;99.90
23562;DHT22;11959;49.418;8.728;2023-07-24T01:38:16;18.70;99.90
23562;DHT22;11959;49.418;8.728;2023-07-24T01:40:42;18.70;99.90
23562;DHT22;11959;49.418;8.728;2023-07-24T01:43:09;18.70;99.90
23562;DHT22;11959;49.418;8.728;2023-07-24T01:45:35;18.80;99.90
23562;DHT22;11959;49.418;8.728;2023-07-24T01:48:03;18.70;99.90
23562;DHT22;11959;49.418;8.728;2023-07-24T01:50:28;18.80;99.90
23562;DHT22;11959;49.418;8.728;2023-07-24T01:52:54;18.80;99.90
23562;DHT22;11959;49.418;8.728;2023-07-24T01:55:20;18.80;99.90
23562;DHT22;11959;49.418;8.728;2023-07-24T01:57:45;18.80;99.90
23562;DHT22;11959;49.418;8.728;2023-07-24T02:00:11;18.70;99.90
23562;DHT22;11959;49.418;8.728;2023-07-24T02:02:37;18.80;99.90
23562;DHT22;11959;49.418;8.728;2023-07-24T02:05:03;18.80;99.90
23562;DHT22;11959;49.418;8.728;2023-07-24T02:07:28;18.80;99.90
23562;DHT22;11959;49.418;8.728;2023-07-24T02:09:54;18.80;99.90
23562;DHT22;11959;49.418;8.728;2023-07-24T02:12:20;18.80;99.90
23562;DHT22;11959;49.418;8.728;2023-07-24T02:14:45;18.80;99.90
23562;DHT22;11959;49.418;8.728;2023-07-24T02:17:15;18.80;99.90
23562;DHT22;11959;49.418;8.728;2023-07-24T02:19:41;18.70;99.90
23562;DHT22;11959;49.418;8.728;2023-07-24T02:22:07;18.70;99.90
23562;DHT22;11959;49.418;8.728;2023-07-24T02:24:32;18.70;99.90
23562;DHT22;11959;49.418;8.728;2023-07-24T02:26:58;18.80;99.90
23562;DHT22;11959;49.418;8.728;2023-07-24T02:29:24;18.80;99.90
23562;DHT22;11959;49.418;8.728;2023-07-24T02:31:50;18.80;99.90
23562;DHT22;11959;49.418;8.728;2023-07-24T02:34:16;18.70;99.90
23562;DHT22;11959;49.418;8.728;2023-07-24T02:36:41;18.70;99.90
23562;DHT22;11959;49.418;8.728;2023-07-24T02:39:07;18.70;99.90
23562;DHT22;11959;49.418;8.728;2023-07-24T02:41:33;18.70;99.90
23562;DHT22;11959;49.418;8.728;2023-07-24T02:43:59;18.70;99.90
23562;DHT22;11959;49.418;8.728;2023-07-24T02:46:24;18.70;99.90
23562;DHT22;11959;49.418;8.728;2023-07-24T02:48:51;18.70;99.90
23562;DHT22;11959;49.418;8.728;2023-07-24T02:51:17;18.70;99.90
23562;DHT22;11959;49.418;8.728;2023-07-24T02:53:42;18.70;99.90
23562;DHT22;11959;49.418;8.728;2023-07-24T02:56:08;18.70;99.90
23562;DHT22;11959;49.418;8.728;2023-07-24T02:58:33;18.70;99.90
23562;DHT22;11959;49.418;8.728;2023-07-24T03:01:03;18.70;99.90
23562;DHT22;11959;49.418;8.728;2023-07-24T03:03:29;18.60;99.90
23562;DHT22;11959;49.418;8.728;2023-07-24T03:05:55;18.60;99.90
23562;DHT22;11959;49.418;8.728;2023-07-24T03:08:20;18.60;99.90
23562;DHT22;11959;49.418;8.728;2023-07-24T03:10:46;18.60;99.90
23562;DHT22;11959;49.418;8.728;2023-07-24T03:13:12;18.60;99.90
23562;DHT22;11959;49.418;8.728;2023-07-24T03:15:38;18.60;99.90
23562;DHT22;11959;49.418;8.728;2023-07-24T03:18:03;18.60;99.90
23562;DHT22;11959;49.418;8.728;2023-07-24T03:20:29;18.60;99.90
23562;DHT22;11959;49.418;8.728;2023-07-24T03:22:55;18.60;99.90
23562;DHT22;11959;49.418;8.728;2023-07-24T03:25:20;18.60;99.90
23562;DHT22;11959;49.418;8.728;2023-07-24T03:27:46;18.60;99.90
23562;DHT22;11959;49.418;8.728;2023-07-24T03:30:11;18.60;99.90
23562;DHT22;11959;49.418;8.728;2023-07-24T03:32:37;18.50;99.90
23562;DHT22;11959;49.418;8.728;2023-07-24T03:35:04;18.60;99.90
23562;DHT22;11959;49.418;8.728;2023-07-24T03:37:31;18.60;99.90
23562;DHT22;11959;49.418;8.728;2023-07-24T03:39:56;18.60;99.90
23562;DHT22;11959;49.418;8.728;2023-07-24T03:42:27;18.60;99.90
23562;DHT22;11959;49.418;8.728;2023-07-24T03:44:53;18.60;99.90
23562;DHT22;11959;49.418;8.728;2023-07-24T03:47:19;18.60;99.90
23562;DHT22;11959;49.418;8.728;2023-07-24T03:49:44;18.50;99.90
23562;DHT22;11959;49.418;8.728;2023-07-24T03:52:10;18.60;99.90
23562;DHT22;11959;49.418;8.728;2023-07-24T03:54:35;18.60;99.90
23562;DHT22;11959;49.418;8.728;2023-07-24T03:57:01;18.60;99.90
23562;DHT22;11959;49.418;8.728;2023-07-24T03:59:27;18.60;99.90
23562;DHT22;11959;49.418;8.728;2023-07-24T04:01:52;18.60;99.90
23562;DHT22;11959;49.418;8.728;2023-07-24T04:04:18;18.60;99.90
23562;DHT22;11959;49.418;8.728;2023-07-24T04:06:45;18.60;99.90
23562;DHT22;11959;49.418;8.728;2023-07-24T04:09:11;18.70;99.90
23562;DHT22;11959;49.418;8.728;2023-07-24T04:11:40;18.70;99.90
23562;DHT22;11959;49.418;8.728;2023-07-24T04:14:06;18.70;99.90
23562;DHT22;11959;49.418;8.728;2023-07-24T04:16:31;18.70;99.90
23562;DHT22;11959;49.418;8.728;2023-07-24T04:18:57;18.70;99.90
23562;DHT22;11959;49.418;8.728;2023-07-24T04:21:23;18.70;99.90
23562;DHT22;11959;49.418;8.728;2023-07-24T04:23:48;18.70;99.90
23562;DHT22;11959;49.418;8.728;2023-07-24T04:26:14;18.70;99.90
23562;DHT22;11959;49.418;8.728;2023-07-24T04:28:40;18.70;99.90
23562;DHT22;11959;49.418;8.728;2023-07-24T04:31:05;18.80;99.90
23562;DHT22;11959;49.418;8.728;2023-07-24T04:33:31;18.80;99.90
23562;DHT22;11959;49.418;8.728;2023-07-24T04:35:56;18.90;99.90
23562;DHT22;11959;49.418;8.728;2023-07-24T04:38:22;18.80;99.90
23562;DHT22;11959;49.418;8.728;2023-07-24T04:40:48;18.80;99.90
23562;DHT22;11959;49.418;8.728;2023-07-24T04:43:14;18.90;99.90
23562;DHT22;11959;49.418;8.728;2023-07-24T04:45:39;18.90;99.90
23562;DHT22;11959;49.418;8.728;2023-07-24T04:48:05;18.90;99.90
23562;DHT22;11959;49.418;8.728;2023-07-24T04:50:31;19.00;99.90
23562;DHT22;11959;49.418;8.728;2023-07-24T04:52:57;19.00;99.90
23562;DHT22;11959;49.418;8.728;2023-07-24T04:55:23;19.00;99.90
23562;DHT22;11959;49.418;8.728;2023-07-24T04:57:49;19.00;99.90
23562;DHT22;11959;49.418;8.728;2023-07-24T05:00:14;19.00;99.90
23562;DHT22;11959;49.418;8.728;2023-07-24T05:02:40;19.10;99.90
23562;DHT22;11959;49.418;8.728;2023-07-24T05:05:06;19.10;99.90
23562;DHT22;11959;49.418;8.728;2023-07-24T05:07:32;19.10;99.90
23562;DHT22;11959;49.418;8.728;2023-07-24T05:09:58;19.10;99.90
23562;DHT22;11959;49.418;8.728;2023-07-24T05:12:24;19.20;99.90
23562;DHT22;11959;49.418;8.728;2023-07-24T05:14:49;19.20;99.90
23562;DHT22;11959;49.418;8.728;2023-07-24T05:17:15;19.20;99.90
23562;DHT22;11959;49.418;8.728;2023-07-24T05:19:41;19.20;99.90
23562;DHT22;11959;49.418;8.728;2023-07-24T05:22:06;19.30;99.90
23562;DHT22;11959;49.418;8.728;2023-07-24T05:24:33;19.40;99.90
23562;DHT22;11959;49.418;8.728;2023-07-24T05:26:59;19.40;99.90
23562;DHT22;11959;49.418;8.728;2023-07-24T05:29:24;19.40;99.90
23562;DHT22;11959;49.418;8.728;2023-07-24T05:31:50;19.40;99.90
23562;DHT22;11959;49.418;8.728;2023-07-24T05:34:16;19.50;99.90
23562;DHT22;11959;49.418;8.728;2023-07-24T05:36:41;19.50;99.90
23562;DHT22;11959;49.418;8.728;2023-07-24T05:39:07;19.50;99.90
23562;DHT22;11959;49.418;8.728;2023-07-24T05:41:33;19.50;99.90
23562;DHT22;11959;49.418;8.728;2023-07-24T05:43:58;19.50;99.90
23562;DHT22;11959;49.418;8.728;2023-07-24T05:46:24;19.50;99.90
23562;DHT22;11959;49.418;8.728;2023-07-24T05:48:52;19.60;99.90
23562;DHT22;11959;49.418;8.728;2023-07-24T05:51:19;19.60;99.90
23562;DHT22;11959;49.418;8.728;2023-07-24T05:53:46;19.60;99.90
23562;DHT22;11959;49.418;8.728;2023-07-24T05:56:19;19.70;99.90
23562;DHT22;11959;49.418;8.728;2023-07-24T05:58:44;19.70;99.90
23562;DHT22;11959;49.418;8.728;2023-07-24T06:01:10;19.70;99.90
23562;DHT22;11959;49.418;8.728;2023-07-24T06:03:36;19.70;99.90
23562;DHT22;11959;49.418;8.728;2023-07-24T06:06:04;19.70;99.90
23562;DHT22;11959;49.418;8.728;2023-07-24T06:08:29;19.80;99.90
23562;DHT22;11959;49.418;8.728;2023-07-24T06:10:55;19.80;99.90
23562;DHT22;11959;49.418;8.728;2023-07-24T06:13:21;19.80;99.90
23562;DHT22;11959;49.418;8.728;2023-07-24T06:15:50;19.90;99.90
23562;DHT22;11959;49.418;8.728;2023-07-24T06:18:16;19.90;99.90
23562;DHT22;11959;49.418;8.728;2023-07-24T06:20:41;19.90;99.90
23562;DHT22;11959;49.418;8.728;2023-07-24T06:23:07;20.00;99.90
23562;DHT22;11959;49.418;8.728;2023-07-24T06:25:33;19.90;99.90
23562;DHT22;11959;49.418;8.728;2023-07-24T06:27:59;20.00;99.90
23562;DHT22;11959;49.418;8.728;2023-07-24T06:30:25;20.00;99.90
23562;DHT22;11959;49.418;8.728;2023-07-24T06:32:50;20.10;99.90
23562;DHT22;11959;49.418;8.728;2023-07-24T06:35:16;20.20;99.90
23562;DHT22;11959;49.418;8.728;2023-07-24T06:37:42;20.20;99.90
23562;DHT22;11959;49.418;8.728;2023-07-24T06:40:08;20.30;99.90
23562;DHT22;11959;49.418;8.728;2023-07-24T06:42:34;20.40;99.90
23562;DHT22;11959;49.418;8.728;2023-07-24T06:44:59;20.40;99.90
23562;DHT22;11959;49.418;8.728;2023-07-24T06:47:25;20.40;99.90
23562;DHT22;11959;49.418;8.728;2023-07-24T06:49:51;20.50;99.90
23562;DHT22;11959;49.418;8.728;2023-07-24T06:52:16;20.50;99.90
23562;DHT22;11959;49.418;8.728;2023-07-24T06:54:42;20.60;99.90
23562;DHT22;11959;49.418;8.728;2023-07-24T06:57:08;20.80;99.90
23562;DHT22;11959;49.418;8.728;2023-07-24T06:59:33;20.90;99.90
23562;DHT22;11959;49.418;8.728;2023-07-24T07:01:59;21.00;99.90
23562;DHT22;11959;49.418;8.728;2023-07-24T07:04:25;21.10;99.90
23562;DHT22;11959;49.418;8.728;2023-07-24T07:06:50;21.20;99.90
23562;DHT22;11959;49.418;8.728;2023-07-24T07:09:16;21.20;99.90
23562;DHT22;11959;49.418;8.728;2023-07-24T07:11:41;21.30;99.90
23562;DHT22;11959;49.418;8.728;2023-07-24T07:14:09;21.40;99.90
23562;DHT22;11959;49.418;8.728;2023-07-24T07:16:34;21.30;99.90
23562;DHT22;11959;49.418;8.728;2023-07-24T07:19:00;21.30;99.90
23562;DHT22;11959;49.418;8.728;2023-07-24T07:21:26;21.30;99.90
23562;DHT22;11959;49.418;8.728;2023-07-24T07:23:52;21.30;99.90
23562;DHT22;11959;49.418;8.728;2023-07-24T07:26:17;21.40;99.90
23562;DHT22;11959;49.418;8.728;2023-07-24T07:28:43;21.50;99.90
23562;DHT22;11959;49.418;8.728;2023-07-24T07:31:10;21.60;99.90
23562;DHT22;11959;49.418;8.728;2023-07-24T07:33:36;21.70;99.90
23562;DHT22;11959;49.418;8.728;2023-07-24T07:36:02;21.70;99.90
23562;DHT22;11959;49.418;8.728;2023-07-24T07:38:29;21.90;99.90
23562;DHT22;11959;49.418;8.728;2023-07-24T07:40:55;21.90;99.90
23562;DHT22;11959;49.418;8.728;2023-07-24T07:43:21;22.00;99.90
23562;DHT22;11959;49.418;8.728;2023-07-24T07:45:47;22.10;99.90
23562;DHT22;11959;49.418;8.728;2023-07-24T07:48:13;22.10;99.90
23562;DHT22;11959;49.418;8.728;2023-07-24T07:50:39;22.10;99.90
23562;DHT22;11959;49.418;8.728;2023-07-24T07:53:04;22.20;99.90
23562;DHT22;11959;49.418;8.728;2023-07-24T07:55:31;22.30;99.90
23562;DHT22;11959;49.418;8.728;2023-07-24T07:57:56;22.40;99.90
23562;DHT22;11959;49.418;8.728;2023-07-24T08:00:22;22.50;99.90
23562;DHT22;11959;49.418;8.728;2023-07-24T08:02:48;22.50;99.90
23562;DHT22;11959;49.418;8.728;2023-07-24T08:05:13;22.60;99.90
23562;DHT22;11959;49.418;8.728;2023-07-24T08:07:39;22.60;99.90
23562;DHT22;11959;49.418;8.728;2023-07-24T08:10:05;22.70;99.90
23562;DHT22;11959;49.418;8.728;2023-07-24T08:12:32;22.80;99.90
23562;DHT22;11959;49.418;8.728;2023-07-24T08:14:58;22.90;99.90
23562;DHT22;11959;49.418;8.728;2023-07-24T08:17:23;22.90;99.90
23562;DHT22;11959;49.418;8.728;2023-07-24T08:19:49;22.90;99.90
23562;DHT22;11959;49.418;8.728;2023-07-24T08:22:14;23.00;99.90
23562;DHT22;11959;49.418;8.728;2023-07-24T08:24:40;23.00;99.90
23562;DHT22;11959;49.418;8.728;2023-07-24T08:27:06;23.00;99.90
23562;DHT22;11959;49.418;8.728;2023-07-24T08:29:31;23.10;99.90
23562;DHT22;11959;49.418;8.728;2023-07-24T08:31:58;23.10;99.90
23562;DHT22;11959;49.418;8.728;2023-07-24T08:34:24;23.20;99.90
23562;DHT22;11959;49.418;8.728;2023-07-24T08:36:50;23.20;99.90
23562;DHT22;11959;49.418;8.728;2023-07-24T08:39:15;23.30;99.90
23562;DHT22;11959;49.418;8.728;2023-07-24T08:41:41;23.40;99.90
23562;DHT22;11959;49.418;8.728;2023-07-24T08:44:10;23.40;99.90
23562;DHT22;11959;49.418;8.728;2023-07-24T08:46:39;23.50;99.90
23562;DHT22;11959;49.418;8.728;2023-07-24T08:49:11;23.60;99.90
23562;DHT22;11959;49.418;8.728;2023-07-24T08:51:37;23.70;99.90
23562;DHT22;11959;49.418;8.728;2023-07-24T08:54:04;23.70;99.90
23562;DHT22;11959;49.418;8.728;2023-07-24T08:56:30;23.80;99.90
23562;DHT22;11959;49.418;8.728;2023-07-24T08:58:56;23.80;99.90
23562;DHT22;11959;49.418;8.728;2023-07-24T09:01:21;23.80;99.90
23562;DHT22;11959;49.418;8.728;2023-07-24T09:03:47;23.90;99.90
23562;DHT22;11959;49.418;8.728;2023-07-24T09:06:13;24.00;99.90
23562;DHT22;11959;49.418;8.728;2023-07-24T09:08:40;24.10;99.90
23562;DHT22;11959;49.418;8.728;2023-07-24T09:11:07;24.10;99.90
23562;DHT22;11959;49.418;8.728;2023-07-24T09:13:35;24.10;99.90
23562;DHT22;11959;49.418;8.728;2023-07-24T09:16:01;24.10;99.90
23562;DHT22;11959;49.418;8.728;2023-07-24T09:18:41;24.00;99.90
23562;DHT22;11959;49.418;8.728;2023-07-24T09:21:08;23.90;99.90
23562;DHT22;11959;49.418;8.728;2023-07-24T09:23:34;23.80;99.90
23562;DHT22;11959;49.418;8.728;2023-07-24T09:26:05;23.80;99.90
23562;DHT22;11959;49.418;8.728;2023-07-24T09:28:33;23.80;99.90
23562;DHT22;11959;49.418;8.728;2023-07-24T09:30:59;23.80;99.90
23562;DHT22;11959;49.418;8.728;2023-07-24T09:33:38;23.80;99.90
23562;DHT22;11959;49.418;8.728;2023-07-24T09:36:06;23.80;99.90
23562;DHT22;11959;49.418;8.728;2023-07-24T09:38:37;23.80;99.90
23562;DHT22;11959;49.418;8.728;2023-07-24T09:41:03;23.90;99.90
23562;DHT22;11959;49.418;8.728;2023-07-24T09:43:29;23.90;99.90
23562;DHT22;11959;49.418;8.728;2023-07-24T09:45:56;24.00;99.90
23562;DHT22;11959;49.418;8.728;2023-07-24T09:48:24;23.90;99.90
23562;DHT22;11959;49.418;8.728;2023-07-24T09:50:55;23.90;99.90
23562;DHT22;11959;49.418;8.728;2023-07-24T09:53:33;23.90;99.90
23562;DHT22;11959;49.418;8.728;2023-07-24T09:56:05;23.90;99.90
23562;DHT22;11959;49.418;8.728;2023-07-24T09:58:34;23.80;99.90
23562;DHT22;11959;49.418;8.728;2023-07-24T10:01:03;23.80;99.90
23562;DHT22;11959;49.418;8.728;2023-07-24T10:03:33;23.80;99.90
23562;DHT22;11959;49.418;8.728;2023-07-24T10:06:00;23.80;99.90
23562;DHT22;11959;49.418;8.728;2023-07-24T10:08:26;23.80;99.90
23562;DHT22;11959;49.418;8.728;2023-07-24T10:10:52;23.80;99.90
23562;DHT22;11959;49.418;8.728;2023-07-24T10:13:21;23.90;99.90
23562;DHT22;11959;49.418;8.728;2023-07-24T10:15:48;23.80;99.90
23562;DHT22;11959;49.418;8.728;2023-07-24T10:18:16;23.60;99.90
23562;DHT22;11959;49.418;8.728;2023-07-24T10:20:43;23.60;99.90
23562;DHT22;11959;49.418;8.728;2023-07-24T10:23:11;23.60;99.90
23562;DHT22;11959;49.418;8.728;2023-07-24T10:25:41;23.50;99.90
23562;DHT22;11959;49.418;8.728;2023-07-24T10:28:10;23.40;99.90
23562;DHT22;11959;49.418;8.728;2023-07-24T10:30:38;23.40;99.90
23562;DHT22;11959;49.418;8.728;2023-07-24T10:33:11;23.40;99.90
23562;DHT22;11959;49.418;8.728;2023-07-24T10:35:41;23.30;99.90
23562;DHT22;11959;49.418;8.728;2023-07-24T10:38:07;23.30;99.90
23562;DHT22;11959;49.418;8.728;2023-07-24T10:40:33;23.30;99.90
23562;DHT22;11959;49.418;8.728;2023-07-24T10:43:10;23.30;99.90
23562;DHT22;11959;49.418;8.728;2023-07-24T10:45:47;23.30;99.90
23562;DHT22;11959;49.418;8.728;2023-07-24T10:48:14;23.30;99.90
23562;DHT22;11959;49.418;8.728;2023-07-24T10:50:42;23.30;99.90
23562;DHT22;11959;49.418;8.728;2023-07-24T10:53:13;23.40;99.90
23562;DHT22;11959;49.418;8.728;2023-07-24T10:55:44;23.40;99.90
23562;DHT22;11959;49.418;8.728;2023-07-24T10:58:11;23.30;99.90
23562;DHT22;11959;49.418;8.728;2023-07-24T11:00:41;23.50;99.90
23562;DHT22;11959;49.418;8.728;2023-07-24T11:03:11;23.50;99.90
23562;DHT22;11959;49.418;8.728;2023-07-24T11:05:42;23.60;99.90
23562;DHT22;11959;49.418;8.728;2023-07-24T11:08:15;23.70;99.90
23562;DHT22;11959;49.418;8.728;2023-07-24T11:10:51;23.80;99.90
23562;DHT22;11959;49.418;8.728;2023-07-24T11:13:18;23.90;99.90
23562;DHT22;11959;49.418;8.728;2023-07-24T11:15:45;24.00;99.90
23562;DHT22;11959;49.418;8.728;2023-07-24T11:18:11;24.10;99.90
23562;DHT22;11959;49.418;8.728;2023-07-24T11:23:10;24.40;99.90
23562;DHT22;11959;49.418;8.728;2023-07-24T11:25:35;24.50;99.90
23562;DHT22;11959;49.418;8.728;2023-07-24T11:28:01;24.60;99.90
23562;DHT22;11959;49.418;8.728;2023-07-24T11:30:29;24.60;99.90
23562;DHT22;11959;49.418;8.728;2023-07-24T11:32:57;24.60;99.90
23562;DHT22;11959;49.418;8.728;2023-07-24T11:35:25;24.60;99.90
23562;DHT22;11959;49.418;8.728;2023-07-24T11:37:51;24.60;99.90
23562;DHT22;11959;49.418;8.728;2023-07-24T11:40:17;24.60;99.90
23562;DHT22;11959;49.418;8.728;2023-07-24T11:42:46;24.70;99.90
23562;DHT22;11959;49.418;8.728;2023-07-24T11:45:12;24.60;99.90
23562;DHT22;11959;49.418;8.728;2023-07-24T11:47:46;24.50;99.90
23562;DHT22;11959;49.418;8.728;2023-07-24T11:50:12;24.50;99.90
23562;DHT22;11959;49.418;8.728;2023-07-24T11:52:45;24.50;99.90
23562;DHT22;11959;49.418;8.728;2023-07-24T11:55:13;24.70;99.90
23562;DHT22;11959;49.418;8.728;2023-07-24T11:57:39;24.70;99.90
23562;DHT22;11959;49.418;8.728;2023-07-24T12:00:17;24.60;99.90
23562;DHT22;11959;49.418;8.728;2023-07-24T12:02:43;24.60;99.90
23562;DHT22;11959;49.418;8.728;2023-07-24T12:05:10;24.60;99.90
23562;DHT22;11959;49.418;8.728;2023-07-24T12:07:36;24.50;99.90
23562;DHT22;11959;49.418;8.728;2023-07-24T12:10:03;24.50;99.90
23562;DHT22;11959;49.418;8.728;2023-07-24T12:12:45;24.60;99.90
23562;DHT22;11959;49.418;8.728;2023-07-24T12:15:12;24.60;99.90
23562;DHT22;11959;49.418;8.728;2023-07-24T12:17:38;24.60;99.90
23562;DHT22;11959;49.418;8.728;2023-07-24T12:20:05;24.60;99.90
23562;DHT22;11959;49.418;8.728;2023-07-24T12:22:34;24.70;99.90
23562;DHT22;11959;49.418;8.728;2023-07-24T12:25:00;24.70;99.90
23562;DHT22;11959;49.418;8.728;2023-07-24T12:27:26;24.70;99.90
23562;DHT22;11959;49.418;8.728;2023-07-24T12:29:52;24.60;99.90
23562;DHT22;11959;49.418;8.728;2023-07-24T12:32:18;24.50;99.90
23562;DHT22;11959;49.418;8.728;2023-07-24T12:34:46;24.40;99.90
23562;DHT22;11959;49.418;8.728;2023-07-24T12:37:12;24.30;99.90
23562;DHT22;11959;49.418;8.728;2023-07-24T12:39:38;24.20;99.90
23562;DHT22;11959;49.418;8.728;2023-07-24T12:42:04;24.10;99.90
23562;DHT22;11959;49.418;8.728;2023-07-24T12:44:30;24.10;99.90
23562;DHT22;11959;49.418;8.728;2023-07-24T12:46:56;24.20;99.90
23562;DHT22;11959;49.418;8.728;2023-07-24T12:49:22;24.20;99.90
23562;DHT22;11959;49.418;8.728;2023-07-24T12:51:47;24.30;99.90
23562;DHT22;11959;49.418;8.728;2023-07-24T12:54:13;24.30;99.90
23562;DHT22;11959;49.418;8.728;2023-07-24T12:56:39;24.40;99.90
23562;DHT22;11959;49.418;8.728;2023-07-24T12:59:05;24.40;99.90
23562;DHT22;11959;49.418;8.728;2023-07-24T13:01:31;24.50;99.90
23562;DHT22;11959;49.418;8.728;2023-07-24T13:03:56;24.50;99.90
23562;DHT22;11959;49.418;8.728;2023-07-24T13:06:22;24.60;99.90
23562;DHT22;11959;49.418;8.728;2023-07-24T13:08:48;24.50;99.90
23562;DHT22;11959;49.418;8.728;2023-07-24T13:11:14;24.50;99.90
23562;DHT22;11959;49.418;8.728;2023-07-24T13:13:40;24.60;99.90
23562;DHT22;11959;49.418;8.728;2023-07-24T13:16:05;24.80;99.90
23562;DHT22;11959;49.418;8.728;2023-07-24T13:18:31;24.90;99.90
23562;DHT22;11959;49.418;8.728;2023-07-24T13:20:57;25.10;99.90
23562;DHT22;11959;49.418;8.728;2023-07-24T13:23:22;25.20;99.90
23562;DHT22;11959;49.418;8.728;2023-07-24T13:25:48;25.30;99.90
23562;DHT22;11959;49.418;8.728;2023-07-24T13:28:16;25.20;99.90
23562;DHT22;11959;49.418;8.728;2023-07-24T13:30:43;25.20;99.90
23562;DHT22;11959;49.418;8.728;2023-07-24T13:33:09;25.10;99.90
23562;DHT22;11959;49.418;8.728;2023-07-24T13:35:35;25.30;99.90
23562;DHT22;11959;49.418;8.728;2023-07-24T13:38:01;25.30;99.90
23562;DHT22;11959;49.418;8.728;2023-07-24T13:40:26;25.30;99.90
23562;DHT22;11959;49.418;8.728;2023-07-24T13:42:52;25.20;99.90
23562;DHT22;11959;49.418;8.728;2023-07-24T13:45:18;25.30;99.90
23562;DHT22;11959;49.418;8.728;2023-07-24T13:47:43;25.40;99.90
23562;DHT22;11959;49.418;8.728;2023-07-24T13:50:09;25.40;99.90
23562;DHT22;11959;49.418;8.728;2023-07-24T13:52:35;25.50;99.90
23562;DHT22;11959;49.418;8.728;2023-07-24T13:55:00;25.60;99.90
23562;DHT22;11959;49.418;8.728;2023-07-24T13:57:26;25.70;99.90
23562;DHT22;11959;49.418;8.728;2023-07-24T13:59:52;25.80;99.90
23562;DHT22;11959;49.418;8.728;2023-07-24T14:02:18;26.00;99.90
23562;DHT22;11959;49.418;8.728;2023-07-24T14:04:44;26.00;99.90
23562;DHT22;11959;49.418;8.728;2023-07-24T14:07:10;26.00;99.90
23562;DHT22;11959;49.418;8.728;2023-07-24T14:09:38;25.90;99.90
23562;DHT22;11959;49.418;8.728;2023-07-24T14:12:04;25.90;99.90
23562;DHT22;11959;49.418;8.728;2023-07-24T14:14:30;25.90;99.90
23562;DHT22;11959;49.418;8.728;2023-07-24T14:16:56;25.90;99.90
23562;DHT22;11959;49.418;8.728;2023-07-24T14:19:22;25.80;99.90
23562;DHT22;11959;49.418;8.728;2023-07-24T14:21:49;25.80;99.90
23562;DHT22;11959;49.418;8.728;2023-07-24T14:24:15;25.50;99.90
23562;DHT22;11959;49.418;8.728;2023-07-24T14:26:41;25.40;99.90
23562;DHT22;11959;49.418;8.728;2023-07-24T14:29:06;25.30;99.90
23562;DHT22;11959;49.418;8.728;2023-07-24T14:31:32;25.10;99.90
23562;DHT22;11959;49.418;8.728;2023-07-24T14:33:58;25.00;99.90
23562;DHT22;11959;49.418;8.728;2023-07-24T14:36:23;24.80;99.90
23562;DHT22;11959;49.418;8.728;2023-07-24T14:38:49;24.70;99.90
23562;DHT22;11959;49.418;8.728;2023-07-24T14:41:16;24.40;99.90
23562;DHT22;11959;49.418;8.728;2023-07-24T14:43:42;24.20;99.90
23562;DHT22;11959;49.418;8.728;2023-07-24T14:46:07;23.90;99.90
23562;DHT22;11959;49.418;8.728;2023-07-24T14:48:33;23.50;99.90
23562;DHT22;11959;49.418;8.728;2023-07-24T14:50:59;23.10;99.90
23562;DHT22;11959;49.418;8.728;2023-07-24T14:53:25;22.70;99.90
23562;DHT22;11959;49.418;8.728;2023-07-24T14:55:50;22.40;99.90
23562;DHT22;11959;49.418;8.728;2023-07-24T14:58:16;22.20;99.90
23562;DHT22;11959;49.418;8.728;2023-07-24T15:00:41;22.00;99.90
23562;DHT22;11959;49.418;8.728;2023-07-24T15:03:07;21.80;99.90
23562;DHT22;11959;49.418;8.728;2023-07-24T15:05:33;21.70;99.90
23562;DHT22;11959;49.418;8.728;2023-07-24T15:07:59;21.60;99.90
23562;DHT22;11959;49.418;8.728;2023-07-24T15:10:25;21.60;99.90
23562;DHT22;11959;49.418;8.728;2023-07-24T15:12:51;21.60;99.90
23562;DHT22;11959;49.418;8.728;2023-07-24T15:15:16;21.50;99.90
23562;DHT22;11959;49.418;8.728;2023-07-24T15:17:42;21.40;99.90
23562;DHT22;11959;49.418;8.728;2023-07-24T15:20:08;21.40;99.90
23562;DHT22;11959;49.418;8.728;2023-07-24T15:22:34;21.40;99.90
23562;DHT22;11959;49.418;8.728;2023-07-24T15:25:00;21.40;99.90
23562;DHT22;11959;49.418;8.728;2023-07-24T15:27:25;21.40;99.90
23562;DHT22;11959;49.418;8.728;2023-07-24T15:29:51;21.40;99.90
23562;DHT22;11959;49.418;8.728;2023-07-24T15:32:17;21.50;99.90